Time;durP1;ratioP1;P1;durP2;ratioP2;P2;SDS_P1;SDS_P2;PMS_P1;PMS_P2;Temp;Humidity;BMP_temperature;BMP_pressure;BME280_temperature;BME280_humidity;BME280_pressure;Samples;Min_cycle;Max_cycle;Signal;HPM_P1;HPM_P2
2022/11/22 00:02:17;;;;;;;36.90;14.60;;;;;;;-1.58;100.00;98390.74;103592;1331;22495;-36
2022/11/22 00:04:43;;;;;;;62.80;27.20;;;;;;;-1.60;100.00;98389.67;103804;1327;22404;-33
2022/11/22 00:07:08;;;;;;;57.40;16.20;;;;;;;-1.59;100.00;98395.88;104019;1337;22493;-36
2022/11/22 00:09:34;;;;;;;75.90;35.10;;;;;;;-1.55;100.00;98403.57;104088;1338;22234;-33
2022/11/22 00:12:00;;;;;;;85.30;37.90;;;;;;;-1.52;100.00;98407.52;104095;1339;22136;-33
2022/11/22 00:14:25;;;;;;;72.20;26.60;;;;;;;-1.51;100.00;98404.61;104023;1338;22699;-36
2022/11/22 00:16:51;;;;;;;156.50;80.00;;;;;;;-1.51;100.00;98412.35;103516;1339;22588;-34
2022/11/22 00:19:16;;;;;;;82.30;34.40;;;;;;;-1.53;100.00;98405.81;104056;1336;22311;-33
2022/11/22 00:21:42;;;;;;;270.50;126.30;;;;;;;-1.54;100.00;98408.41;104094;1333;22086;-32
2022/11/22 00:24:10;;;;;;;40.20;15.80;;;;;;;-1.58;100.00;98406.88;104083;1339;22022;-37
2022/11/22 00:26:36;;;;;;;57.90;23.00;;;;;;;-1.59;100.00;98408.01;104073;1331;22169;-36
2022/11/22 00:29:02;;;;;;;68.90;27.00;;;;;;;-1.59;100.00;98413.84;103149;1339;22514;-32
2022/11/22 00:31:27;;;;;;;91.50;31.70;;;;;;;-1.58;100.00;98415.14;104084;1339;22362;-37
2022/11/22 00:33:53;;;;;;;61.80;22.90;;;;;;;-1.58;100.00;98416.84;104095;1339;22179;-37
2022/11/22 00:36:18;;;;;;;220.60;117.70;;;;;;;-1.56;100.00;98421.59;103779;1339;24299;-32
2022/11/22 00:38:44;;;;;;;73.20;33.80;;;;;;;-1.56;100.00;98421.09;103934;1339;22511;-33
2022/11/22 00:41:09;;;;;;;244.30;83.60;;;;;;;-1.58;100.00;98414.60;103619;1331;22224;-33
2022/11/22 00:43:35;;;;;;;319.10;113.80;;;;;;;-1.56;100.00;98417.73;104085;1339;22128;-37
2022/11/22 00:46:00;;;;;;;108.00;38.50;;;;;;;-1.57;100.00;98418.32;104010;1339;22589;-33
2022/11/22 00:48:26;;;;;;;67.80;21.10;;;;;;;-1.57;100.00;98417.33;104023;1334;22509;-35
2022/11/22 00:50:52;;;;;;;57.20;18.50;;;;;;;-1.57;100.00;98411.89;103843;1335;22174;-33
2022/11/22 00:53:18;;;;;;;176.50;61.70;;;;;;;-1.57;100.00;98421.14;103972;1339;22198;-34
2022/11/22 00:55:44;;;;;;;180.30;60.50;;;;;;;-1.57;100.00;98425.33;104099;1337;22522;-37
2022/11/22 00:58:10;;;;;;;63.10;27.50;;;;;;;-1.52;100.00;98419.30;104061;1339;22307;-33
2022/11/22 01:00:35;;;;;;;54.80;21.40;;;;;;;-1.44;100.00;98424.45;104112;1339;22158;-33
2022/11/22 01:03:01;;;;;;;195.50;85.60;;;;;;;-1.36;100.00;98431.69;103885;1334;22479;-37
2022/11/22 01:05:26;;;;;;;228.00;106.40;;;;;;;-1.33;100.00;98425.77;103503;1339;22497;-33
2022/11/22 01:07:52;;;;;;;213.60;89.10;;;;;;;-1.32;100.00;98425.64;103680;1339;22466;-34
2022/11/22 01:10:18;;;;;;;144.00;62.90;;;;;;;-1.29;100.00;98422.01;104046;1339;22504;-36
2022/11/22 01:12:43;;;;;;;174.60;70.10;;;;;;;-1.24;100.00;98409.42;103445;1339;22551;-34
2022/11/22 01:15:09;;;;;;;153.60;64.20;;;;;;;-1.24;100.00;98406.44;104051;1339;22514;-34
2022/11/22 01:17:35;;;;;;;142.50;54.90;;;;;;;-1.24;100.00;98398.02;104051;1331;22104;-33
2022/11/22 01:20:00;;;;;;;87.00;38.90;;;;;;;-1.28;100.00;98395.72;104073;1339;22533;-37
2022/11/22 01:22:26;;;;;;;85.10;27.60;;;;;;;-1.28;100.00;98398.25;104089;1337;22260;-33
2022/11/22 01:24:52;;;;;;;81.50;28.30;;;;;;;-1.35;100.00;98391.38;103922;1339;22545;-34
2022/11/22 01:27:18;;;;;;;95.80;37.00;;;;;;;-1.45;100.00;98392.80;104081;1331;22049;-37
2022/11/22 01:29:43;;;;;;;145.50;70.90;;;;;;;-1.48;100.00;98397.45;104085;1331;22492;-37
2022/11/22 01:32:09;;;;;;;107.70;41.90;;;;;;;-1.48;100.00;98390.12;104047;1339;22608;-33
2022/11/22 01:34:35;;;;;;;107.20;38.30;;;;;;;-1.49;100.00;98386.30;103992;1334;22523;-37
2022/11/22 01:37:01;;;;;;;442.60;231.00;;;;;;;-1.50;100.00;98380.95;104035;1339;22216;-37
2022/11/22 01:39:26;;;;;;;301.50;150.30;;;;;;;-1.52;100.00;98383.80;104054;1330;22151;-37
2022/11/22 01:41:52;;;;;;;128.10;61.50;;;;;;;-1.51;100.00;98385.29;104105;1339;22273;-37
2022/11/22 01:44:18;;;;;;;152.90;67.90;;;;;;;-1.53;100.00;98382.11;104061;1339;22149;-37
2022/11/22 01:46:44;;;;;;;369.90;162.30;;;;;;;-1.52;100.00;98383.83;104010;1339;22222;-33
2022/11/22 01:49:12;;;;;;;130.10;48.10;;;;;;;-1.49;100.00;98379.34;104062;1334;22541;-36
2022/11/22 01:51:39;;;;;;;292.50;113.10;;;;;;;-1.50;100.00;98374.34;104098;1339;22359;-34
2022/11/22 01:54:07;;;;;;;97.90;32.30;;;;;;;-1.51;100.00;98374.56;104087;1339;22514;-36
2022/11/22 01:56:32;;;;;;;233.80;98.20;;;;;;;-1.50;100.00;98381.64;104112;1339;22592;-34
2022/11/22 01:59:01;;;;;;;116.60;42.30;;;;;;;-1.51;100.00;98384.96;104105;1338;22207;-33
2022/11/22 02:01:26;;;;;;;91.30;39.50;;;;;;;-1.52;100.00;98382.05;103907;1333;22147;-36
2022/11/22 02:03:52;;;;;;;132.60;52.80;;;;;;;-1.53;100.00;98383.07;102689;1339;22939;-36
2022/11/22 02:06:17;;;;;;;413.70;223.90;;;;;;;-1.49;100.00;98383.02;104111;1339;22162;-33
2022/11/22 02:08:47;;;;;;;348.30;164.70;;;;;;;-1.49;100.00;98377.70;104101;1325;22192;-37
2022/11/22 02:11:14;;;;;;;342.00;154.10;;;;;;;-1.47;100.00;98382.11;103947;1331;22537;-37
2022/11/22 02:13:41;;;;;;;149.70;59.50;;;;;;;-1.45;100.00;98377.92;104127;1339;22374;-33
2022/11/22 02:16:07;;;;;;;406.90;173.10;;;;;;;-1.42;100.00;98380.89;104043;1331;22174;-33
2022/11/22 02:18:34;;;;;;;257.10;98.70;;;;;;;-1.40;100.00;98377.42;103966;1339;22298;-34
2022/11/22 02:21:00;;;;;;;76.90;26.50;;;;;;;-1.41;100.00;98378.14;103691;1339;579589;-34
2022/11/22 02:23:40;;;;;;;225.50;81.50;;;;;;;-1.37;100.00;98376.99;103932;1339;22517;-36
2022/11/22 02:26:06;;;;;;;64.00;21.70;;;;;;;-1.32;100.00;98372.23;104022;1339;22133;-37
2022/11/22 02:28:34;;;;;;;64.60;19.70;;;;;;;-1.31;100.00;98377.73;104094;1339;24261;-35
2022/11/22 02:31:00;;;;;;;66.00;28.20;;;;;;;-1.28;100.00;98369.79;104084;1339;22606;-30
2022/11/22 02:33:25;;;;;;;130.30;57.10;;;;;;;-1.23;100.00;98366.01;104068;1339;22204;-31
2022/11/22 02:35:52;;;;;;;104.20;45.10;;;;;;;-1.20;100.00;98361.95;103960;1339;22592;-34
2022/11/22 02:38:20;;;;;;;46.30;18.10;;;;;;;-1.20;100.00;98367.19;104050;1333;22581;-32
2022/11/22 02:40:51;;;;;;;69.00;29.00;;;;;;;-1.17;100.00;98366.40;104050;1339;22223;-31
2022/11/22 02:43:20;;;;;;;80.90;29.00;;;;;;;-1.13;100.00;98361.86;104103;1339;22513;-35
2022/11/22 02:45:46;;;;;;;194.70;65.30;;;;;;;-1.12;100.00;98365.79;103984;1339;22052;-31
2022/11/22 02:48:13;;;;;;;119.70;47.60;;;;;;;-1.18;100.00;98365.60;103717;1339;22350;-35
2022/11/22 02:50:39;;;;;;;74.70;28.20;;;;;;;-1.25;100.00;98363.65;103756;1331;22513;-36
2022/11/22 02:53:05;;;;;;;63.10;22.50;;;;;;;-1.32;100.00;98363.52;104075;1331;22633;-36
2022/11/22 02:55:31;;;;;;;69.20;23.10;;;;;;;-1.37;100.00;98364.52;104078;1331;22518;-36
2022/11/22 02:57:56;;;;;;;159.00;74.50;;;;;;;-1.41;100.00;98369.94;103787;1339;22243;-37
2022/11/22 03:00:22;;;;;;;128.90;53.30;;;;;;;-1.42;100.00;98369.48;103699;1339;22498;-37
2022/11/22 03:02:48;;;;;;;210.60;94.90;;;;;;;-1.45;100.00;98369.09;103867;1338;22227;-33
2022/11/22 03:05:13;;;;;;;39.60;17.30;;;;;;;-1.46;100.00;98370.27;104031;1334;22020;-36
2022/11/22 03:07:39;;;;;;;140.60;59.40;;;;;;;-1.48;100.00;98368.35;104027;1339;22623;-33
2022/11/22 03:10:05;;;;;;;184.70;79.10;;;;;;;-1.49;100.00;98375.64;104112;1337;22375;-34
2022/11/22 03:12:30;;;;;;;90.30;26.40;;;;;;;-1.50;100.00;98374.14;103543;1339;22586;-33
2022/11/22 03:14:56;;;;;;;56.60;19.30;;;;;;;-1.51;100.00;98381.12;103980;1325;22492;-33
2022/11/22 03:17:21;;;;;;;67.30;20.80;;;;;;;-1.48;100.00;98387.17;103486;1334;23301;-33
2022/11/22 03:19:48;;;;;;;52.90;16.30;;;;;;;-1.49;100.00;98391.40;104135;1334;22526;-33
2022/11/22 03:22:14;;;;;;;75.50;19.70;;;;;;;-1.48;100.00;98393.30;104072;1329;22437;-34
2022/11/22 03:24:39;;;;;;;67.70;18.70;;;;;;;-1.47;100.00;98395.77;104027;1339;22520;-34
2022/11/22 03:27:06;;;;;;;76.70;22.20;;;;;;;-1.44;100.00;98388.02;103826;1333;22571;-33
2022/11/22 03:29:31;;;;;;;339.70;99.80;;;;;;;-1.44;100.00;98392.39;104097;1331;22271;-37
2022/11/22 03:31:57;;;;;;;69.30;20.30;;;;;;;-1.43;100.00;98393.27;104039;1334;22169;-34
2022/11/22 03:34:22;;;;;;;109.20;43.10;;;;;;;-1.43;100.00;98389.11;104116;1339;22510;-33
2022/11/22 03:36:48;;;;;;;84.40;25.30;;;;;;;-1.42;100.00;98390.93;103947;1331;22174;-33
2022/11/22 03:39:13;;;;;;;143.20;54.20;;;;;;;-1.43;100.00;98381.54;104002;1334;22838;-35
2022/11/22 03:41:39;;;;;;;192.70;82.30;;;;;;;-1.43;100.00;98384.31;104037;1339;22229;-34
2022/11/22 03:44:04;;;;;;;140.20;60.30;;;;;;;-1.40;100.00;98385.19;103777;1339;22507;-38
2022/11/22 03:46:30;;;;;;;75.00;30.10;;;;;;;-1.37;100.00;98382.73;104095;1339;22401;-37
2022/11/22 03:48:55;;;;;;;111.40;41.40;;;;;;;-1.36;100.00;98378.96;104103;1339;22646;-39
2022/11/22 03:51:21;;;;;;;137.90;55.40;;;;;;;-1.35;100.00;98374.68;104005;1339;22239;-34
2022/11/22 03:53:46;;;;;;;111.20;45.60;;;;;;;-1.35;100.00;98371.71;103960;1339;22136;-33
2022/11/22 03:56:12;;;;;;;82.20;32.60;;;;;;;-1.37;100.00;98368.23;103786;1339;24073;-34
2022/11/22 03:58:37;;;;;;;61.80;26.30;;;;;;;-1.36;100.00;98362.16;104113;1333;22237;-34
2022/11/22 04:01:03;;;;;;;117.80;52.20;;;;;;;-1.37;100.00;98360.67;104083;1334;22165;-37
2022/11/22 04:03:28;;;;;;;57.00;22.20;;;;;;;-1.40;100.00;98362.31;104086;1339;22493;-34
2022/11/22 04:05:54;;;;;;;96.80;36.50;;;;;;;-1.44;100.00;98366.52;104093;1336;22338;-37
2022/11/22 04:08:19;;;;;;;89.10;30.00;;;;;;;-1.44;100.00;98363.36;104021;1339;23028;-37
2022/11/22 04:10:47;;;;;;;195.80;69.40;;;;;;;-1.43;100.00;98359.44;104095;1331;22060;-37
2022/11/22 04:13:13;;;;;;;72.00;28.00;;;;;;;-1.45;100.00;98366.50;104096;1317;22151;-37
2022/11/22 04:15:40;;;;;;;112.20;47.00;;;;;;;-1.46;100.00;98370.21;103906;1331;22508;-33
2022/11/22 04:18:09;;;;;;;60.90;21.80;;;;;;;-1.44;100.00;98369.58;103522;1339;22509;-34
2022/11/22 04:23:05;;;;;;;98.60;35.00;;;;;;;-1.45;100.00;98371.37;104097;1339;22519;-34
2022/11/22 04:25:32;;;;;;;679.10;354.20;;;;;;;-1.46;100.00;98371.59;103617;1339;22525;-34
2022/11/22 04:27:58;;;;;;;98.60;41.20;;;;;;;-1.44;100.00;98369.04;104042;1339;22218;-37
2022/11/22 04:32:44;;;;;;;83.30;24.40;;;;;;;-1.45;100.00;98371.01;104113;1317;22212;-34
2022/11/22 04:33:10;;;;;;;73.20;26.50;;;;;;;-1.45;100.00;98375.36;104046;1334;22224;-37
2022/11/22 04:35:36;;;;;;;66.70;24.10;;;;;;;-1.46;100.00;98369.33;104088;1339;22524;-34
2022/11/22 04:38:01;;;;;;;219.00;75.60;;;;;;;-1.48;100.00;98363.77;104111;1321;22382;-37
2022/11/22 04:40:27;;;;;;;115.10;30.40;;;;;;;-1.51;100.00;98367.95;104141;1339;22027;-37
2022/11/22 04:45:22;;;;;;;90.00;27.50;;;;;;;-1.55;100.00;98379.77;103646;1339;22065;-37
2022/11/22 04:55:14;;;;;;;48.50;16.70;;;;;;;-1.57;100.00;98366.94;104096;1339;22216;-34
2022/11/22 04:57:40;;;;;;;127.60;46.30;;;;;;;-1.58;100.00;98364.23;104053;1339;22531;-34
2022/11/22 05:00:06;;;;;;;44.30;15.70;;;;;;;-1.58;100.00;98362.78;103947;1337;22153;-34
2022/11/22 05:02:31;;;;;;;33.10;12.00;;;;;;;-1.59;100.00;98362.84;104090;1339;22177;-34
2022/11/22 05:04:57;;;;;;;123.20;41.40;;;;;;;-1.58;100.00;98367.16;104039;1339;22169;-37
2022/11/22 05:07:22;;;;;;;71.70;29.00;;;;;;;-1.59;100.00;98369.23;104026;1331;22760;-34
2022/11/22 05:09:48;;;;;;;67.30;25.90;;;;;;;-1.60;100.00;98364.21;104106;1334;22187;-37
2022/11/22 05:12:13;;;;;;;49.10;21.80;;;;;;;-1.61;100.00;98366.91;104074;1339;22653;-33
2022/11/22 05:14:39;;;;;;;43.50;16.70;;;;;;;-1.64;100.00;98367.05;103169;1339;24461;-37
2022/11/22 05:17:04;;;;;;;45.00;15.30;;;;;;;-1.66;100.00;98378.67;103097;1337;22319;-34
2022/11/22 05:19:30;;;;;;;66.90;26.80;;;;;;;-1.66;100.00;98374.59;104008;1334;22528;-34
2022/11/22 05:21:56;;;;;;;26.90;7.60;;;;;;;-1.63;100.00;98375.55;103926;1339;22540;-34
2022/11/22 05:24:21;;;;;;;39.40;12.50;;;;;;;-1.67;100.00;98378.00;103665;1339;22517;-37
2022/11/22 05:26:46;;;;;;;47.10;21.10;;;;;;;-1.64;100.00;98382.65;104129;1334;22508;-37
2022/11/22 05:29:12;;;;;;;38.30;11.70;;;;;;;-1.62;100.00;98380.91;104086;1339;22516;-34
2022/11/22 05:31:38;;;;;;;38.20;15.60;;;;;;;-1.62;100.00;98378.96;104128;1339;22525;-34
2022/11/22 05:34:04;;;;;;;54.10;18.20;;;;;;;-1.61;100.00;98383.84;104092;1331;22228;-34
2022/11/22 05:36:31;;;;;;;34.60;16.00;;;;;;;-1.60;100.00;98385.77;104070;1339;22138;-33
2022/11/22 05:38:57;;;;;;;49.80;15.50;;;;;;;-1.59;100.00;98387.42;104003;1339;22242;-37
2022/11/22 05:41:22;;;;;;;33.90;11.90;;;;;;;-1.54;100.00;98392.91;104062;1339;22364;-34
2022/11/22 05:43:48;;;;;;;34.20;12.80;;;;;;;-1.52;100.00;98399.56;104066;1333;22159;-37
2022/11/22 05:46:18;;;;;;;39.40;17.30;;;;;;;-1.49;100.00;98403.21;103712;1339;24368;-34
2022/11/22 05:48:45;;;;;;;38.20;11.80;;;;;;;-1.47;100.00;98405.50;103973;1339;22512;-33
2022/11/22 05:51:12;;;;;;;34.20;15.80;;;;;;;-1.46;100.00;98401.54;104006;1339;22033;-37
2022/11/22 05:53:38;;;;;;;40.30;16.20;;;;;;;-1.46;100.00;98398.45;103846;1338;22588;-36
2022/11/22 05:56:07;;;;;;;44.30;15.90;;;;;;;-1.45;100.00;98393.66;104111;1333;22189;-36
2022/11/22 05:58:33;;;;;;;37.20;13.10;;;;;;;-1.46;100.00;98394.27;104086;1338;22036;-34
2022/11/22 06:01:03;;;;;;;35.10;12.60;;;;;;;-1.47;100.00;98398.73;104020;1339;24215;-37
2022/11/22 06:03:29;;;;;;;37.90;14.30;;;;;;;-1.44;100.00;98393.11;104025;1339;22139;-37
2022/11/22 06:05:54;;;;;;;35.40;12.90;;;;;;;-1.43;100.00;98394.15;104026;1339;22104;-34
2022/11/22 06:08:20;;;;;;;43.90;17.80;;;;;;;-1.41;100.00;98393.81;104031;1334;22181;-37
2022/11/22 06:10:46;;;;;;;33.90;12.40;;;;;;;-1.42;100.00;98396.34;103763;1339;22054;-37
2022/11/22 06:13:11;;;;;;;37.90;14.00;;;;;;;-1.41;100.00;98399.45;104032;1339;22544;-37
2022/11/22 06:15:37;;;;;;;47.30;15.90;;;;;;;-1.39;100.00;98401.40;104012;1339;22563;-34
2022/11/22 06:18:02;;;;;;;39.10;13.60;;;;;;;-1.36;100.00;98409.34;103813;1332;22495;-34
2022/11/22 06:20:28;;;;;;;45.50;17.30;;;;;;;-1.32;100.00;98412.52;103411;1339;22465;-33
2022/11/22 06:22:54;;;;;;;35.60;13.50;;;;;;;-1.31;100.00;98413.82;102835;1338;22584;-35
2022/11/22 06:25:19;;;;;;;45.50;15.70;;;;;;;-1.30;100.00;98416.13;103858;1339;22176;-34
2022/11/22 06:27:44;;;;;;;38.50;13.30;;;;;;;-1.31;100.00;98421.56;103979;1334;22510;-36
2022/11/22 06:30:11;;;;;;;42.40;15.30;;;;;;;-1.29;100.00;98421.45;104043;1334;22547;-34
2022/11/22 06:32:37;;;;;;;42.50;16.10;;;;;;;-1.27;100.00;98421.98;104068;1339;22535;-36
2022/11/22 06:35:02;;;;;;;115.70;37.00;;;;;;;-1.22;100.00;98415.71;104017;1339;22194;-37
2022/11/22 06:37:28;;;;;;;55.90;20.60;;;;;;;-1.20;100.00;98412.40;103991;1331;22513;-37
2022/11/22 06:39:54;;;;;;;38.00;12.90;;;;;;;-1.18;100.00;98413.19;104050;1339;22042;-34
2022/11/22 06:42:19;;;;;;;30.30;11.50;;;;;;;-1.14;100.00;98420.28;103946;1339;24404;-36
2022/11/22 06:44:45;;;;;;;46.50;16.20;;;;;;;-1.10;100.00;98420.42;103030;1339;22258;-37
2022/11/22 06:47:10;;;;;;;48.60;19.90;;;;;;;-1.07;100.00;98418.36;103855;1339;22527;-37
2022/11/22 06:49:36;;;;;;;49.40;21.10;;;;;;;-1.07;100.00;98407.69;103961;1339;22148;-36
2022/11/22 06:52:01;;;;;;;48.40;20.10;;;;;;;-1.08;100.00;98409.81;103889;1331;22528;-37
2022/11/22 06:54:27;;;;;;;62.50;24.00;;;;;;;-1.09;100.00;98410.45;103496;1339;22497;-33
2022/11/22 06:56:52;;;;;;;52.10;18.10;;;;;;;-1.07;100.00;98410.61;103672;1339;23927;-34
2022/11/22 06:59:18;;;;;;;49.60;16.70;;;;;;;-1.05;100.00;98417.46;103981;1339;22345;-33
2022/11/22 07:01:43;;;;;;;53.60;17.50;;;;;;;-1.02;100.00;98422.11;103847;1331;22514;-37
2022/11/22 07:04:09;;;;;;;45.80;14.70;;;;;;;-1.00;100.00;98421.67;103987;1331;23233;-37
2022/11/22 07:06:37;;;;;;;58.20;19.00;;;;;;;-0.98;100.00;98426.23;104043;1339;22575;-37
2022/11/22 07:09:04;;;;;;;59.10;17.40;;;;;;;-0.97;100.00;98431.81;103713;1339;22686;-37
2022/11/22 07:11:30;;;;;;;46.20;15.30;;;;;;;-0.97;100.00;98437.89;103751;1333;22294;-37
2022/11/22 07:13:57;;;;;;;52.10;19.70;;;;;;;-0.93;100.00;98446.69;104108;1332;22245;-35
2022/11/22 07:16:22;;;;;;;58.90;19.00;;;;;;;-0.92;100.00;98448.21;103570;1339;22184;-34
2022/11/22 07:18:48;;;;;;;113.90;21.80;;;;;;;-0.87;100.00;98452.52;104010;1339;22056;-34
2022/11/22 07:21:16;;;;;;;52.00;18.10;;;;;;;-0.84;100.00;98455.91;104049;1338;22093;-34
2022/11/22 07:23:43;;;;;;;35.30;13.60;;;;;;;-0.82;100.00;98457.19;103750;1339;22530;-34
2022/11/22 07:26:09;;;;;;;53.00;15.80;;;;;;;-0.80;100.00;98456.14;103859;1339;22171;-34
2022/11/22 07:28:35;;;;;;;72.90;21.50;;;;;;;-0.76;100.00;98461.77;104044;1339;22988;-37
2022/11/22 07:31:02;;;;;;;59.90;20.20;;;;;;;-0.73;100.00;98463.95;104049;1339;22247;-36
2022/11/22 07:33:27;;;;;;;59.80;20.90;;;;;;;-0.72;100.00;98465.80;104101;1339;22283;-37
2022/11/22 07:35:53;;;;;;;69.70;19.80;;;;;;;-0.71;100.00;98469.52;104020;1339;22115;-35
2022/11/22 07:38:19;;;;;;;59.10;20.70;;;;;;;-0.69;100.00;98472.64;103746;1338;22534;-37
2022/11/22 07:40:44;;;;;;;69.90;22.00;;;;;;;-0.63;100.00;98475.06;103953;1334;22201;-37
2022/11/22 07:43:10;;;;;;;60.20;21.80;;;;;;;-0.58;100.00;98478.59;104067;1339;22508;-37
2022/11/22 07:45:35;;;;;;;81.60;20.60;;;;;;;-0.53;100.00;98478.80;104003;1339;24408;-37
2022/11/22 07:48:01;;;;;;;37.20;15.20;;;;;;;-0.43;100.00;98479.86;103941;1325;22075;-34
2022/11/22 07:50:27;;;;;;;76.30;31.10;;;;;;;-0.35;100.00;98474.00;103994;1324;22518;-36
2022/11/22 07:52:56;;;;;;;38.00;17.10;;;;;;;-0.33;100.00;98466.77;103861;1339;22504;-37
2022/11/22 07:55:24;;;;;;;107.40;47.50;;;;;;;-0.30;100.00;98462.34;103000;1331;22458;-37
2022/11/22 07:57:51;;;;;;;68.30;25.60;;;;;;;-0.24;100.00;98459.14;103954;1339;22537;-37
2022/11/22 08:00:17;;;;;;;90.30;40.50;;;;;;;-0.23;100.00;98450.98;103891;1339;22193;-34
2022/11/22 08:02:43;;;;;;;49.60;17.70;;;;;;;-0.25;100.00;98452.56;104076;1339;22868;-37
2022/11/22 08:05:09;;;;;;;65.80;26.50;;;;;;;-0.22;100.00;98447.52;104068;1338;22218;-36
2022/11/22 08:07:34;;;;;;;68.50;24.70;;;;;;;-0.17;100.00;98437.91;103986;1337;22834;-37
2022/11/22 08:10:00;;;;;;;104.70;37.10;;;;;;;-0.14;100.00;98419.46;103902;1339;22499;-33
2022/11/22 08:12:26;;;;;;;71.10;32.00;;;;;;;-0.15;100.00;98417.95;104018;1331;22499;-37
2022/11/22 08:14:51;;;;;;;56.40;22.10;;;;;;;-0.13;100.00;98423.77;104011;1331;22516;-37
2022/11/22 08:17:16;;;;;;;49.70;19.20;;;;;;;-0.09;100.00;98429.74;103846;1339;23805;-37
2022/11/22 08:19:42;;;;;;;50.90;17.80;;;;;;;-0.06;100.00;98431.98;104103;1338;22059;-37
2022/11/22 08:22:08;;;;;;;57.80;20.80;;;;;;;0.01;100.00;98430.80;104064;1332;22550;-34
2022/11/22 08:24:33;;;;;;;71.00;23.10;;;;;;;0.11;100.00;98426.66;103516;1339;24296;-37
2022/11/22 08:26:59;;;;;;;60.10;21.20;;;;;;;0.13;100.00;98421.89;103803;1331;22199;-37
2022/11/22 08:29:24;;;;;;;52.60;19.50;;;;;;;0.16;100.00;98416.49;104013;1334;22347;-37
2022/11/22 08:31:50;;;;;;;51.40;22.60;;;;;;;0.20;100.00;98407.23;103550;1338;24298;-36
2022/11/22 08:34:15;;;;;;;78.00;23.70;;;;;;;0.25;100.00;98410.62;103379;1337;22495;-37
2022/11/22 08:36:40;;;;;;;62.60;21.60;;;;;;;0.33;100.00;98412.82;104017;1339;22227;-37
2022/11/22 08:39:06;;;;;;;79.30;25.60;;;;;;;0.36;100.00;98410.06;104069;1339;22503;-33
2022/11/22 08:41:32;;;;;;;61.50;21.40;;;;;;;0.45;100.00;98408.56;103976;1331;22695;-37
2022/11/22 08:43:58;;;;;;;54.30;20.60;;;;;;;0.53;100.00;98406.16;103939;1334;22582;-34
2022/11/22 08:46:23;;;;;;;60.70;23.60;;;;;;;0.57;100.00;98401.69;104057;1331;22062;-38
2022/11/22 08:48:51;;;;;;;71.10;28.20;;;;;;;0.65;100.00;98398.13;104086;1339;22176;-34
2022/11/22 08:51:16;;;;;;;75.60;24.80;;;;;;;0.69;100.00;98394.98;104069;1330;22585;-34
2022/11/22 08:53:42;;;;;;;62.50;22.70;;;;;;;0.79;100.00;98385.70;104062;1331;22497;-37
2022/11/22 08:56:10;;;;;;;54.20;22.60;;;;;;;0.87;100.00;98382.34;103437;1339;24417;-38
2022/11/22 08:58:35;;;;;;;79.00;25.70;;;;;;;0.97;100.00;98374.86;104041;1331;22513;-34
2022/11/22 09:01:06;;;;;;;61.90;24.90;;;;;;;1.01;100.00;98368.16;104056;1339;22448;-37
2022/11/22 09:03:33;;;;;;;60.10;23.00;;;;;;;1.00;100.00;98361.67;104047;1339;22539;-34
2022/11/22 09:06:01;;;;;;;66.60;28.40;;;;;;;1.06;100.00;98362.83;104040;1331;22203;-37
2022/11/22 09:08:27;;;;;;;73.70;25.60;;;;;;;1.18;100.00;98361.20;104061;1339;22516;-36
2022/11/22 09:10:53;;;;;;;77.40;31.70;;;;;;;1.33;100.00;98361.52;103988;1332;22518;-37
2022/11/22 09:13:18;;;;;;;74.50;30.20;;;;;;;1.51;100.00;98365.90;103892;1333;22060;-34
2022/11/22 09:15:45;;;;;;;77.20;28.50;;;;;;;1.72;100.00;98369.03;104048;1325;22586;-34
2022/11/22 09:18:10;;;;;;;77.10;28.20;;;;;;;1.95;100.00;98363.35;103937;1331;22316;-34
2022/11/22 09:20:36;;;;;;;72.00;28.60;;;;;;;2.21;100.00;98351.27;104036;1334;22517;-34
2022/11/22 09:23:02;;;;;;;59.60;27.10;;;;;;;2.48;100.00;98344.42;104077;1339;22207;-34
2022/11/22 09:25:29;;;;;;;68.20;26.40;;;;;;;2.68;100.00;98322.55;104090;1324;22317;-34
2022/11/22 09:27:58;;;;;;;55.60;23.50;;;;;;;2.75;100.00;98295.02;103876;1339;22604;-39
2022/11/22 09:30:24;;;;;;;53.20;22.90;;;;;;;2.77;100.00;98278.40;104017;1338;22605;-34
2022/11/22 09:32:50;;;;;;;40.80;19.40;;;;;;;2.60;100.00;98272.00;104015;1339;22418;-34
2022/11/22 09:35:18;;;;;;;59.90;24.90;;;;;;;2.51;100.00;98277.47;104095;1324;22176;-38
2022/11/22 09:37:45;;;;;;;41.60;21.00;;;;;;;2.56;100.00;98275.16;104041;1331;22330;-37
2022/11/22 09:40:12;;;;;;;45.30;20.60;;;;;;;2.74;100.00;98271.52;103966;1337;22667;-39
2022/11/22 09:42:46;;;;;;;47.10;23.20;;;;;;;2.89;100.00;98268.42;103591;1338;22534;-37
2022/11/22 09:45:15;;;;;;;60.90;28.10;;;;;;;3.01;100.00;98260.61;104051;1339;22533;-34
2022/11/22 09:47:42;;;;;;;52.90;24.40;;;;;;;3.14;100.00;98260.73;103949;1336;22200;-34
2022/11/22 09:50:14;;;;;;;43.80;20.10;;;;;;;3.32;100.00;98254.75;104079;1331;22510;-37
2022/11/22 09:52:45;;;;;;;37.80;18.50;;;;;;;3.55;100.00;98242.20;103947;1339;24866;-34
2022/11/22 09:55:17;;;;;;;47.10;20.80;;;;;;;3.74;100.00;98230.94;103925;1339;22193;-37
2022/11/22 09:57:46;;;;;;;49.80;19.60;;;;;;;3.81;100.00;98223.36;103746;1338;22049;-37
2022/11/22 10:00:15;;;;;;;37.20;17.60;;;;;;;3.87;100.00;98218.20;104030;1339;22214;-37
2022/11/22 10:02:43;;;;;;;36.20;16.90;;;;;;;4.04;100.00;98221.12;104004;1331;22524;-37
2022/11/22 10:05:14;;;;;;;38.40;18.00;;;;;;;4.18;100.00;98224.50;104033;1339;22284;-34
2022/11/22 10:07:43;;;;;;;30.50;15.40;;;;;;;4.35;100.00;98216.70;104028;1339;22172;-34
2022/11/22 10:10:12;;;;;;;34.00;19.90;;;;;;;4.39;100.00;98219.16;103956;1339;22519;-37
2022/11/22 10:12:41;;;;;;;23.20;14.20;;;;;;;4.39;100.00;98218.53;103804;1339;22704;-37
2022/11/22 10:15:18;;;;;;;37.10;16.70;;;;;;;4.46;100.00;98214.25;103999;1317;22185;-37
2022/11/22 10:17:51;;;;;;;39.20;19.70;;;;;;;4.59;100.00;98216.04;104029;1339;22580;-34
2022/11/22 10:20:19;;;;;;;23.10;14.70;;;;;;;4.77;100.00;98217.95;103643;1339;351866;-37
2022/11/22 10:22:44;;;;;;;33.20;18.30;;;;;;;4.87;100.00;98214.55;103814;1331;22050;-37
2022/11/22 10:25:15;;;;;;;57.00;20.90;;;;;;;5.03;100.00;98214.57;104055;1339;22488;-37
2022/11/22 10:27:42;;;;;;;88.50;41.00;;;;;;;5.21;100.00;98210.77;103848;1333;22588;-34
2022/11/22 10:30:12;;;;;;;69.80;37.40;;;;;;;5.43;100.00;98208.61;104018;1334;22074;-34
2022/11/22 10:32:41;;;;;;;422.40;161.30;;;;;;;5.58;100.00;98208.44;103404;1339;22131;-38
2022/11/22 10:35:20;;;;;;;129.80;62.30;;;;;;;5.73;100.00;98206.99;104037;1338;22712;-37
2022/11/22 10:37:47;;;;;;;52.20;30.20;;;;;;;5.79;100.00;98205.84;103937;1334;22534;-34
2022/11/22 10:40:20;;;;;;;49.30;26.50;;;;;;;5.99;100.00;98199.42;104077;1331;22174;-37
2022/11/22 10:42:54;;;;;;;28.70;14.70;;;;;;;6.14;99.44;98197.51;103837;1339;22507;-34
2022/11/22 10:45:22;;;;;;;40.50;20.90;;;;;;;6.22;98.15;98200.15;103963;1339;22462;-34
2022/11/22 10:47:51;;;;;;;44.00;25.20;;;;;;;6.31;97.77;98195.86;103848;1339;22066;-37
2022/11/22 10:50:22;;;;;;;29.50;16.00;;;;;;;6.44;97.79;98191.19;104016;1326;22825;-34
2022/11/22 10:52:51;;;;;;;25.80;15.70;;;;;;;6.69;97.98;98191.84;103876;1339;22509;-34
2022/11/22 10:55:22;;;;;;;34.60;21.40;;;;;;;6.77;96.09;98182.68;104028;1339;22582;-38
2022/11/22 10:57:55;;;;;;;74.00;32.50;;;;;;;6.75;94.28;98184.75;104031;1339;22505;-37
2022/11/22 11:00:23;;;;;;;23.70;13.40;;;;;;;6.78;94.40;98182.55;103973;1331;22527;-34
2022/11/22 11:02:54;;;;;;;74.10;25.60;;;;;;;6.72;92.75;98176.29;103997;1339;22982;-37
2022/11/22 11:05:22;;;;;;;43.60;19.50;;;;;;;6.80;93.53;98174.91;104093;1332;22223;-34
2022/11/22 11:07:48;;;;;;;71.40;26.40;;;;;;;6.96;93.29;98173.23;103679;1336;22514;-37
2022/11/22 11:10:16;;;;;;;40.20;19.60;;;;;;;7.14;92.74;98170.02;104000;1339;22555;-37
2022/11/22 11:12:45;;;;;;;238.30;86.70;;;;;;;7.22;91.60;98168.35;103893;1339;22191;-38